createdAt,value
2022-09-28T00:01:37.147Z,8.52
2022-09-28T00:04:38.763Z,8.51
2022-09-28T00:07:40.347Z,8.48
2022-09-28T00:10:42.011Z,8.45
2022-09-28T00:13:43.981Z,8.25
2022-09-28T00:16:47.067Z,8.39
2022-09-28T00:19:48.712Z,8.20
2022-09-28T00:22:50.315Z,7.92
2022-09-28T00:25:52.046Z,8.00
2022-09-28T00:28:54.100Z,7.93
2022-09-28T00:31:57.788Z,7.94
2022-09-28T00:34:59.416Z,7.78
2022-09-28T00:38:01.071Z,7.71
2022-09-28T00:41:02.641Z,7.82
2022-09-28T00:44:37.298Z,7.83
2022-09-28T00:47:45.767Z,7.76
2022-09-28T00:50:47.663Z,7.77
2022-09-28T00:53:50.235Z,7.91
2022-09-28T00:56:51.836Z,7.93
2022-09-28T00:59:53.657Z,7.71
2022-09-28T01:02:57.671Z,7.80
2022-09-28T01:06:02.096Z,7.83
2022-09-28T01:09:05.053Z,7.79
2022-09-28T01:12:06.969Z,7.71
2022-09-28T01:15:09.043Z,7.72
2022-09-28T01:18:16.275Z,7.68
2022-09-28T01:21:19.353Z,7.82
2022-09-28T01:24:31.842Z,7.98
2022-09-28T01:27:37.190Z,8.07
2022-09-28T01:30:42.325Z,8.17
2022-09-28T01:33:45.917Z,8.24
2022-09-28T01:36:49.366Z,8.35
2022-09-28T01:39:52.393Z,8.42
2022-09-28T01:42:58.453Z,8.43
2022-09-28T01:46:02.014Z,8.42
2022-09-28T01:49:07.951Z,8.42
2022-09-28T01:52:13.808Z,8.45
2022-09-28T01:55:19.145Z,8.53
2022-09-28T01:58:25.539Z,8.53
2022-09-28T02:01:29.187Z,8.51
2022-09-28T02:04:32.758Z,8.47
2022-09-28T02:07:37.652Z,8.54
2022-09-28T02:10:42.527Z,8.55
2022-09-28T02:13:47.876Z,8.63
2022-09-28T02:16:50.977Z,8.60
2022-09-28T02:19:52.552Z,8.60
2022-09-28T02:22:55.846Z,8.62
2022-09-28T02:26:01.095Z,8.68
2022-09-28T02:29:04.205Z,8.66
2022-09-28T02:32:05.919Z,8.65
2022-09-28T02:35:08.317Z,8.61
2022-09-28T02:38:10.822Z,8.62
2022-09-28T02:41:21.550Z,8.68
2022-09-28T02:44:43.146Z,8.67
2022-09-28T02:47:56.355Z,8.59
2022-09-28T02:51:03.343Z,8.68
2022-09-28T02:54:12.643Z,8.60
2022-09-28T02:57:24.507Z,8.70
2022-09-28T03:00:27.444Z,8.62
2022-09-28T03:03:33.319Z,8.63
2022-09-28T03:06:40.185Z,8.65
2022-09-28T03:09:44.059Z,8.66
2022-09-28T03:12:47.877Z,8.58
2022-09-28T03:15:50.885Z,8.58
2022-09-28T03:18:52.557Z,8.65
2022-09-28T03:21:54.151Z,8.63
2022-09-28T03:24:55.817Z,8.58
2022-09-28T03:27:57.581Z,8.53
2022-09-28T03:31:00.568Z,8.40
2022-09-28T03:34:02.210Z,8.29
2022-09-28T03:37:03.777Z,8.35
2022-09-28T03:40:05.846Z,8.40
2022-09-28T03:43:07.622Z,8.39
2022-09-28T03:46:10.653Z,8.45
2022-09-28T03:49:12.601Z,8.47
2022-09-28T03:52:14.555Z,8.45
2022-09-28T03:55:16.250Z,8.36
2022-09-28T03:58:17.815Z,8.42
2022-09-28T04:01:20.998Z,8.40
2022-09-28T04:04:22.905Z,8.36
2022-09-28T04:07:27.891Z,8.38
2022-09-28T04:10:32.021Z,8.43
2022-09-28T04:13:33.817Z,8.37
2022-09-28T04:16:37.097Z,8.44
2022-09-28T04:19:41.059Z,8.42
2022-09-28T04:22:42.676Z,8.46
2022-09-28T04:25:44.347Z,8.41
2022-09-28T04:28:46.474Z,8.33
2022-09-28T04:31:50.753Z,8.36
2022-09-28T04:34:52.726Z,8.36
2022-09-28T04:37:54.441Z,8.27
2022-09-28T04:40:56.126Z,8.10
2022-09-28T04:43:57.742Z,8.21
2022-09-28T04:47:04.341Z,8.30
2022-09-28T04:50:07.358Z,8.18
2022-09-28T04:53:08.940Z,8.26
2022-09-28T04:56:11.627Z,8.25
2022-09-28T04:59:13.277Z,8.31
2022-09-28T05:02:16.445Z,8.20
2022-09-28T05:05:18.058Z,8.12
2022-09-28T05:08:19.690Z,7.96
2022-09-28T05:11:21.412Z,8.06
2022-09-28T05:14:22.993Z,8.12
2022-09-28T05:17:25.957Z,8.17
2022-09-28T05:20:27.566Z,8.17
2022-09-28T05:23:29.245Z,8.22
2022-09-28T05:26:30.944Z,8.17
2022-09-28T05:29:32.857Z,8.27
2022-09-28T05:32:39.559Z,8.28
2022-09-28T05:35:41.217Z,8.21
2022-09-28T05:38:42.873Z,8.05
2022-09-28T05:41:44.492Z,8.07
2022-09-28T05:44:46.071Z,7.93
2022-09-28T05:47:49.091Z,7.77
2022-09-28T05:50:50.842Z,7.57
2022-09-28T05:53:54.326Z,7.57
2022-09-28T05:56:55.905Z,7.74
2022-09-28T05:59:57.571Z,7.90
2022-09-28T06:03:03.430Z,8.04
2022-09-28T06:06:08.286Z,8.15
2022-09-28T06:09:09.997Z,8.18
2022-09-28T06:12:11.722Z,8.20
2022-09-28T06:15:13.944Z,8.32
2022-09-28T06:18:17.005Z,8.32
2022-09-28T06:21:18.643Z,8.38
2022-09-28T06:24:20.245Z,8.46
2022-09-28T06:27:21.933Z,8.41
2022-09-28T06:30:23.944Z,8.15
2022-09-28T06:33:27.051Z,8.00
2022-09-28T06:36:29.012Z,8.14
2022-09-28T06:39:30.632Z,8.30
2022-09-28T06:42:32.234Z,8.43
2022-09-28T06:45:33.830Z,8.58
2022-09-28T06:48:36.839Z,8.66
2022-09-28T06:51:38.416Z,8.75
2022-09-28T06:54:40.024Z,8.71
2022-09-28T06:57:41.717Z,8.73
2022-09-28T07:00:43.755Z,8.84
2022-09-28T07:03:46.748Z,8.84
2022-09-28T07:06:48.425Z,8.84
2022-09-28T07:09:55.227Z,8.83
2022-09-28T07:12:58.135Z,8.91
2022-09-28T07:15:59.802Z,9.00
2022-09-28T07:19:02.853Z,8.93
2022-09-28T07:22:05.553Z,8.86
2022-09-28T07:25:07.783Z,8.94
2022-09-28T07:28:09.412Z,8.94
2022-09-28T07:31:11.146Z,8.99
2022-09-28T07:34:14.272Z,9.04
2022-09-28T07:37:16.384Z,9.10
2022-09-28T07:40:18.143Z,9.10
2022-09-28T07:43:20.169Z,9.13
2022-09-28T07:46:21.887Z,9.20
2022-09-28T07:49:24.996Z,9.03
2022-09-28T07:52:26.596Z,9.04
2022-09-28T07:55:28.245Z,9.01
2022-09-28T07:58:29.982Z,9.09
2022-09-28T08:01:31.789Z,9.07
2022-09-28T08:04:34.856Z,9.09
2022-09-28T08:07:36.459Z,9.12
2022-09-28T08:10:38.255Z,9.22
2022-09-28T08:13:40.158Z,9.08
2022-09-28T08:16:41.718Z,9.02
2022-09-28T08:19:44.717Z,9.14
2022-09-28T08:22:46.301Z,9.13
2022-09-28T08:25:48.337Z,9.20
2022-09-28T08:28:50.022Z,9.37
2022-09-28T08:31:51.614Z,9.26
2022-09-28T08:34:54.838Z,9.28
2022-09-28T08:37:56.421Z,9.37
2022-09-28T08:41:14.077Z,9.43
2022-09-28T08:44:16.993Z,9.54
2022-09-28T08:47:21.285Z,9.66
2022-09-28T08:50:28.655Z,9.84
2022-09-28T08:53:36.886Z,9.68
2022-09-28T08:56:41.072Z,9.66
2022-09-28T08:59:46.684Z,9.77
2022-09-28T09:02:48.763Z,9.86
2022-09-28T09:05:57.980Z,9.85
2022-09-28T09:09:03.172Z,9.90
2022-09-28T09:12:09.421Z,9.81
2022-09-28T09:15:24.448Z,9.76
2022-09-28T09:18:32.722Z,9.79
2022-09-28T09:21:40.005Z,9.85
2022-09-28T09:24:46.660Z,9.87
2022-09-28T09:27:59.374Z,9.86
2022-09-28T09:31:07.375Z,9.88
2022-09-28T09:34:18.778Z,9.85
2022-09-28T09:37:29.590Z,9.87
2022-09-28T09:40:42.275Z,9.92
2022-09-28T09:43:52.196Z,9.81
2022-09-28T09:46:56.442Z,9.97
2022-09-28T09:50:05.309Z,9.98
2022-09-28T09:53:15.800Z,10.04
2022-09-28T09:56:21.995Z,9.98
2022-09-28T09:59:26.231Z,9.97
2022-09-28T10:02:28.850Z,9.85
2022-09-28T10:05:31.365Z,9.91
2022-09-28T10:08:38.025Z,9.98
2022-09-28T10:11:42.508Z,10.05
2022-09-28T10:14:44.185Z,10.13
2022-09-28T10:17:45.910Z,10.20
2022-09-28T10:20:47.567Z,10.27
2022-09-28T10:23:54.628Z,10.40
2022-09-28T10:26:59.127Z,10.49
2022-09-28T10:30:02.889Z,10.37
2022-09-28T10:33:04.531Z,10.50
2022-09-28T10:36:06.981Z,10.62
2022-09-28T10:39:21.738Z,10.51
2022-09-28T10:42:26.268Z,10.51
2022-09-28T10:45:30.884Z,10.53
2022-09-28T10:48:49.247Z,10.48
2022-09-28T10:51:51.967Z,10.44
2022-09-28T10:54:55.069Z,10.40
2022-09-28T10:57:56.727Z,10.55
2022-09-28T11:01:01.033Z,10.59
2022-09-28T11:04:04.627Z,10.51
2022-09-28T11:07:17.415Z,10.60
2022-09-28T11:10:22.069Z,10.59
2022-09-28T11:13:23.700Z,10.66
2022-09-28T11:16:27.470Z,10.74
2022-09-28T11:19:29.122Z,10.73
2022-09-28T11:22:38.796Z,10.86
2022-09-28T11:25:42.087Z,10.83
2022-09-28T11:28:43.675Z,10.73
2022-09-28T11:31:46.170Z,10.71
2022-09-28T11:34:59.196Z,10.68
2022-09-28T11:38:09.643Z,10.58
2022-09-28T11:41:26.072Z,10.68
2022-09-28T11:44:36.181Z,10.65
2022-09-28T11:47:44.228Z,10.65
2022-09-28T11:50:48.561Z,10.72
2022-09-28T11:53:52.256Z,10.81
2022-09-28T11:56:53.984Z,10.85
2022-09-28T11:59:58.801Z,11.07
2022-09-28T12:03:05.910Z,11.06
2022-09-28T12:06:09.252Z,11.10
2022-09-28T12:09:14.425Z,11.04
2022-09-28T12:12:20.211Z,10.96
2022-09-28T12:15:25.606Z,11.12
2022-09-28T12:18:30.065Z,11.05
2022-09-28T12:21:36.328Z,11.13
2022-09-28T12:24:40.385Z,11.19
2022-09-28T12:27:51.788Z,11.15
2022-09-28T12:30:55.813Z,11.16
2022-09-28T12:33:57.640Z,11.29
2022-09-28T12:37:09.025Z,11.20
2022-09-28T12:40:29.108Z,11.19
2022-09-28T12:43:36.139Z,11.29
2022-09-28T12:46:46.340Z,11.23
2022-09-28T12:50:37.012Z,11.22
2022-09-28T12:53:30.096Z,11.18
2022-09-28T12:56:35.329Z,11.19
2022-09-28T12:59:39.160Z,11.06
2022-09-28T13:02:57.144Z,11.04
2022-09-28T13:06:13.739Z,11.03
2022-09-28T13:09:17.225Z,10.83
2022-09-28T13:12:26.056Z,10.85
2022-09-28T13:15:32.816Z,10.84
2022-09-28T13:18:41.162Z,10.91
2022-09-28T13:21:46.436Z,10.78
2022-09-28T13:24:48.877Z,10.86
2022-09-28T13:27:52.363Z,10.84
2022-09-28T13:30:55.470Z,10.68
2022-09-28T13:33:59.768Z,10.31
2022-09-28T13:37:09.234Z,10.38
2022-09-28T13:40:11.055Z,10.40
2022-09-28T13:43:22.035Z,10.29
2022-09-28T13:46:26.862Z,10.35
2022-09-28T13:49:36.699Z,10.26
2022-09-28T13:52:43.426Z,10.17
2022-09-28T13:55:53.505Z,10.07
2022-09-28T13:58:57.471Z,10.09
2022-09-28T14:02:06.628Z,10.07
2022-09-28T14:05:23.651Z,10.04
2022-09-28T14:08:30.090Z,9.96
2022-09-28T14:11:41.289Z,9.94
2022-09-28T14:14:47.014Z,10.11
2022-09-28T14:17:54.489Z,10.03
2022-09-28T14:21:05.117Z,10.02
2022-09-28T14:24:21.878Z,9.94
2022-09-28T14:27:31.211Z,9.97
2022-09-28T14:30:45.735Z,9.96
2022-09-28T14:33:54.903Z,9.83
2022-09-28T14:36:58.917Z,9.66
2022-09-28T14:40:08.788Z,9.63
2022-09-28T14:43:20.900Z,9.65
2022-09-28T14:46:30.358Z,9.64
2022-09-28T14:49:45.525Z,9.61
2022-09-28T14:52:49.209Z,9.68
2022-09-28T14:55:54.739Z,9.80
2022-09-28T14:58:57.919Z,9.87
2022-09-28T15:02:01.307Z,9.89
2022-09-28T15:05:09.807Z,9.92
2022-09-28T15:08:11.687Z,9.92
2022-09-28T15:11:16.954Z,9.95
2022-09-28T15:14:18.797Z,9.86
2022-09-28T15:17:22.734Z,9.91
2022-09-28T15:20:25.490Z,9.91
2022-09-28T15:23:33.179Z,9.96
2022-09-28T15:26:36.207Z,9.86
2022-09-28T15:29:37.938Z,9.79
2022-09-28T15:32:39.534Z,9.84
2022-09-28T15:35:41.379Z,9.72
2022-09-28T15:38:43.177Z,9.76
2022-09-28T15:41:47.966Z,9.82
2022-09-28T15:45:10.534Z,9.83
2022-09-28T15:48:19.110Z,9.90
2022-09-28T15:51:24.538Z,9.96
2022-09-28T15:54:27.549Z,10.01
2022-09-28T15:57:34.773Z,10.04
2022-09-28T16:00:36.544Z,10.03
2022-09-28T16:03:38.138Z,10.13
2022-09-28T16:06:40.691Z,10.19
2022-09-28T16:09:53.649Z,10.09
2022-09-28T16:12:58.272Z,10.06
2022-09-28T16:16:00.257Z,10.14
2022-09-28T16:19:02.228Z,10.06
2022-09-28T16:22:05.607Z,10.09
2022-09-28T16:25:16.321Z,10.16
2022-09-28T16:28:26.266Z,10.24
2022-09-28T16:31:29.454Z,10.22
2022-09-28T16:34:31.088Z,10.21
2022-09-28T16:37:32.813Z,10.20
2022-09-28T16:40:35.030Z,10.20
2022-09-28T16:43:38.080Z,10.19
2022-09-28T16:46:39.811Z,10.20
2022-09-28T16:49:41.458Z,10.26
2022-09-28T16:52:43.279Z,10.31
2022-09-28T16:55:46.394Z,10.31
2022-09-28T16:58:49.468Z,10.30
2022-09-28T17:01:51.056Z,10.38
2022-09-28T17:04:52.720Z,10.37
2022-09-28T17:07:59.431Z,10.40
2022-09-28T17:11:22.584Z,10.40
2022-09-28T17:14:24.611Z,10.41
2022-09-28T17:17:26.273Z,10.41
2022-09-28T17:20:29.611Z,10.52
2022-09-28T17:23:31.223Z,10.47
2022-09-28T17:26:32.862Z,10.41
2022-09-28T17:29:35.898Z,10.40
2022-09-28T17:32:37.509Z,10.43
2022-09-28T17:35:39.847Z,10.24
2022-09-28T17:38:41.676Z,10.26
2022-09-28T17:41:43.407Z,10.27
2022-09-28T17:44:46.469Z,10.30
2022-09-28T17:47:48.237Z,10.23
2022-09-28T17:50:49.961Z,10.20
2022-09-28T17:53:51.632Z,10.19
2022-09-28T17:56:53.273Z,10.14
2022-09-28T17:59:56.292Z,10.19
2022-09-28T18:02:58.308Z,10.21
2022-09-28T18:06:01.780Z,10.20
2022-09-28T18:09:03.810Z,10.19
2022-09-28T18:12:05.726Z,10.21
2022-09-28T18:15:09.560Z,10.21
2022-09-28T18:18:11.179Z,10.24
2022-09-28T18:21:12.805Z,10.21
2022-09-28T18:24:14.499Z,10.20
2022-09-28T18:27:16.196Z,10.19
2022-09-28T18:30:19.322Z,10.18
2022-09-28T18:33:21.082Z,10.13
2022-09-28T18:36:27.550Z,10.13
2022-09-28T18:39:29.176Z,10.09
2022-09-28T18:42:30.817Z,10.06
2022-09-28T18:45:34.106Z,9.98
2022-09-28T18:48:35.850Z,10.03
2022-09-28T18:51:37.916Z,9.98
2022-09-28T18:54:39.668Z,9.94
2022-09-28T18:57:41.302Z,9.91
2022-09-28T19:00:44.541Z,9.99
2022-09-28T19:03:46.153Z,9.95
2022-09-28T19:06:47.828Z,9.88
2022-09-28T19:09:50.182Z,9.97
2022-09-28T19:12:51.748Z,9.97
2022-09-28T19:15:54.879Z,9.95
2022-09-28T19:18:56.936Z,9.91
2022-09-28T19:21:58.727Z,9.94
2022-09-28T19:25:00.435Z,9.94
2022-09-28T19:28:02.576Z,9.94
2022-09-28T19:31:07.196Z,9.91
2022-09-28T19:34:11.840Z,9.91
2022-09-28T19:37:15.773Z,9.95
2022-09-28T19:40:17.406Z,9.91
2022-09-28T19:43:19.131Z,9.91
2022-09-28T19:46:22.401Z,9.83
2022-09-28T19:49:25.418Z,9.87
2022-09-28T19:52:27.072Z,9.83
2022-09-28T19:55:28.740Z,9.75
2022-09-28T19:58:31.562Z,9.72
2022-09-28T20:01:34.773Z,9.71
2022-09-28T20:04:36.461Z,9.62
2022-09-28T20:07:38.076Z,9.69
2022-09-28T20:10:39.690Z,9.63
2022-09-28T20:13:41.382Z,9.56
2022-09-28T20:16:44.526Z,9.54
2022-09-28T20:19:46.222Z,9.51
2022-09-28T20:22:47.861Z,9.54
2022-09-28T20:25:52.149Z,9.56
2022-09-28T20:28:54.172Z,9.54
2022-09-28T20:31:57.343Z,9.52
2022-09-28T20:34:58.916Z,9.38
2022-09-28T20:38:00.716Z,9.32
2022-09-28T20:41:02.401Z,9.42
2022-09-28T20:44:05.888Z,9.26
2022-09-28T20:47:09.445Z,9.24
2022-09-28T20:50:11.021Z,9.19
2022-09-28T20:53:12.644Z,9.22
2022-09-28T20:56:16.821Z,9.20
2022-09-28T20:59:18.517Z,9.19
2022-09-28T21:02:21.553Z,9.25
2022-09-28T21:05:23.420Z,9.16
2022-09-28T21:08:25.329Z,9.18
2022-09-28T21:11:27.550Z,9.14
2022-09-28T21:14:29.255Z,9.06
2022-09-28T21:17:32.284Z,9.02
2022-09-28T21:20:33.932Z,8.98
2022-09-28T21:23:36.056Z,8.60
2022-09-28T21:26:37.797Z,8.73
2022-09-28T21:29:39.490Z,8.42
2022-09-28T21:32:42.471Z,8.43
2022-09-28T21:35:44.115Z,8.49
2022-09-28T21:38:45.785Z,8.50
2022-09-28T21:41:47.379Z,8.52
2022-09-28T21:44:49.159Z,8.54
2022-09-28T21:47:52.221Z,8.61
2022-09-28T21:50:54.432Z,8.53
2022-09-28T21:53:56.664Z,8.39
2022-09-28T21:56:58.240Z,8.54
2022-09-28T21:59:59.852Z,8.60
2022-09-28T22:03:03.149Z,8.52
2022-09-28T22:06:05.359Z,8.50
2022-09-28T22:09:07.092Z,8.53
2022-09-28T22:12:09.056Z,8.62
2022-09-28T22:15:10.828Z,8.56
2022-09-28T22:18:13.821Z,8.57
2022-09-28T22:21:16.718Z,8.63
2022-09-28T22:24:18.642Z,8.57
2022-09-28T22:27:20.364Z,8.40
2022-09-28T22:30:22.006Z,8.47
2022-09-28T22:33:25.488Z,8.40
2022-09-28T22:36:27.567Z,8.45
2022-09-28T22:39:29.246Z,8.38
2022-09-28T22:42:30.887Z,8.41
2022-09-28T22:45:32.585Z,8.51
2022-09-28T22:48:36.051Z,8.48
2022-09-28T22:51:37.829Z,8.45
2022-09-28T22:54:39.424Z,8.46
2022-09-28T22:57:41.523Z,8.41
2022-09-28T23:00:43.221Z,8.46
2022-09-28T23:03:46.311Z,8.47
2022-09-28T23:06:47.875Z,8.51
2022-09-28T23:09:51.444Z,8.47
2022-09-28T23:12:53.205Z,8.47
2022-09-28T23:15:55.478Z,8.35
2022-09-28T23:18:58.633Z,8.30
2022-09-28T23:22:00.194Z,8.26
2022-09-28T23:25:01.992Z,8.25
2022-09-28T23:28:03.844Z,8.22
2022-09-28T23:31:08.717Z,8.15
2022-09-28T23:34:11.816Z,8.05
2022-09-28T23:37:13.496Z,8.03
2022-09-28T23:40:15.094Z,8.06
2022-09-28T23:43:16.685Z,8.10
2022-09-28T23:46:21.033Z,8.11
2022-09-28T23:49:24.465Z,8.20
2022-09-28T23:52:26.097Z,8.27
2022-09-28T23:55:27.722Z,8.30
2022-09-28T23:58:29.411Z,8.30
